Dobbs Ferry, New York
Current Conditions -  °F | °C
As of 12:56 PM on Saturday 27 Dec 2014 (Local Time) from KHPN Reporting Station
Clear Clear  
Wind Chill: 11°   Ceiling: Unl
Heat Index: 11°   Visibility: 10mi
Dew Point:   Wind: 3mph
Humidity: 47%   Direction: 270°W
Pressure: 30.18"   Gusts: NA
Location:  41.02°N, 73.87°W
Report Text: KHPN 271756Z 27003KT 10SM CLR 11/00 A3018 RMK AO2 SLP223 T01110000 10111 20011 58023
Loading
Personal Weather Stations






























Interactive Weather Map New forecast layout! Learn more

10-Day Weather Forecast

Advertisements
Track Severe Weather on mobile